• Join FlightAware (Why Join?)
  • Login
  • US Flag 
01:14AM EDT


 

Airport Tracker/Info


-or-


 

Live Flight TrackerFlight Track Log ✈ FLG3903 ✈ 05-Jul-2013 ✈ KMBS - KDTW

Flight Track Log - Related Links

Times and Time Zones

All times are in EDT time to prevent confusion due to time zone crossing. See the FLG3903 flight status page for this flight to view local times or setup timezone preferences in your user account.

Time Position Orientation Groundspeed Altitude Reporting Facility
EDT Latitude Longitude Course Direction KTS MPH feet Rate Location/Type
02:00PM 43.3290 -83.9653 158° South  Level Estimated
02:01PM 43.2765 -83.9425 162° South  Level FlightAware Approximate
02:02PM 43.2068 -83.9033 161° South  Level Estimated
02:03PM 43.1353 -83.8706 162° South  Level FlightAware Approximate
02:04PM 43.0667 -83.8393 162° South  Level FlightAware Approximate
02:05PM 42.9980 -83.8080 162° South  Level FlightAware Approximate
02:06PM 42.9294 -83.7768 162° South  Level FlightAware Approximate
02:06PM 42.9236 -83.8836 157° South 261 300 6,000  Level Cleveland Center
02:07PM 42.8607 -83.7457 162° South  Level FlightAware Approximate
02:07PM 42.8878 -83.8222 129° Southeast 271 312 6,000  Level Cleveland Center
02:08PM 42.7929 -83.7116 152° Southeast  Level FlightAware Approximate
02:08PM 42.8381 -83.7403 130° Southeast 276 318 6,000  Level Cleveland Center
02:09PM 42.7288 -83.6658 152° Southeast  Level FlightAware Approximate
02:09PM 42.7908 -83.7125 157° South 213 245 6,000  Level Cleveland Center
02:10PM 42.6641 -83.6219 157° South  Level FlightAware Approximate
02:10PM 42.7228 -83.6864 164° South 210 242 6,000  Level Cleveland Center
02:11PM 42.5977 -83.5828 157° South  Level FlightAware Approximate
02:11PM 42.6692 -83.6583 159° South 214 246 6,000  Level Cleveland Center
02:12PM 42.6156 -83.6361 163° South 216 249 6,000  Level Cleveland Center
02:13PM 42.5819 -83.5667 123° Southeast 214 246 6,000  Level Cleveland Center
02:14PM 42.5775 -83.5017 95° East 213 245 6,000  Level Cleveland Center
02:15PM 42.5733 -83.4111 94° East 213 245 6,000  Level Cleveland Center
02:16PM 42.5900 -83.3303 74° East 214 246 6,000 -540 Level Cleveland Center
02:17PM 42.5897 -83.2567 90° East 194 223 5,000 -660 Descending Cleveland Center
02:18PM 42.5747 -83.1772 104° East 180 207 4,600 -540 Descending Cleveland Center
02:19PM 42.5461 -83.1533 148° Southeast 186 214 4,000 -300 Descending Cleveland Center
02:20PM 42.4853 -83.1764 196° South 195 224 4,000  Level Cleveland Center
02:21PM 42.4469 -83.2058 210° Southwest 191 220 4,000  Level Cleveland Center
02:22PM 42.3897 -83.2483 209° Southwest 186 214 4,000  Level Cleveland Center